createdAt,value
2019-01-18T00:01:17.034Z,0.00
2019-01-18T00:02:16.811Z,0.00
2019-01-18T00:04:10.593Z,0.00
2019-01-18T00:05:10.401Z,0.00
2019-01-18T00:07:03.722Z,0.00
2019-01-18T00:08:03.487Z,0.00
2019-01-18T00:09:56.542Z,0.00
2019-01-18T00:10:56.578Z,0.00
2019-01-18T00:12:49.672Z,0.00
2019-01-18T00:13:49.698Z,0.00
2019-01-18T00:15:43.522Z,0.00
2019-01-18T00:16:43.263Z,0.00
2019-01-18T00:18:36.383Z,0.00
2019-01-18T00:19:36.381Z,0.00
2019-01-18T00:21:29.965Z,0.00
2019-01-18T00:22:29.946Z,0.00
2019-01-18T00:24:23.292Z,0.00
2019-01-18T00:25:23.287Z,0.00
2019-01-18T00:27:16.863Z,0.00
2019-01-18T00:28:16.406Z,0.00
2019-01-18T00:30:09.956Z,0.00
2019-01-18T00:31:09.721Z,0.00
2019-01-18T00:33:03.527Z,0.00
2019-01-18T00:34:03.060Z,0.00
2019-01-18T00:35:56.423Z,4.00
2019-01-18T00:36:56.671Z,0.00
2019-01-18T00:38:50.234Z,0.00
2019-01-18T00:39:49.782Z,0.00
2019-01-18T00:41:43.362Z,4.00
2019-01-18T00:42:43.128Z,4.00
2019-01-18T00:44:36.659Z,0.00
2019-01-18T00:45:36.451Z,4.00
2019-01-18T00:47:30.029Z,4.00
2019-01-18T00:48:30.016Z,4.00
2019-01-18T00:50:23.373Z,4.00
2019-01-18T00:51:23.381Z,4.00
2019-01-18T00:53:16.723Z,8.00
2019-01-18T00:54:16.692Z,4.00
2019-01-18T00:56:10.043Z,4.00
2019-01-18T00:57:10.026Z,8.00
2019-01-18T00:59:03.428Z,4.00
2019-01-18T01:00:03.394Z,8.00
2019-01-18T01:01:57.009Z,8.00
2019-01-18T01:02:56.739Z,8.00
2019-01-18T01:04:50.092Z,12.00
2019-01-18T01:05:50.082Z,8.00
2019-01-18T01:07:43.408Z,12.00
2019-01-18T01:08:43.168Z,8.00
2019-01-18T01:10:36.918Z,12.00
2019-01-18T01:11:36.522Z,8.00
2019-01-18T01:13:30.443Z,12.00
2019-01-18T01:14:30.219Z,12.00
2019-01-18T01:16:23.554Z,16.00
2019-01-18T01:17:23.244Z,16.00
2019-01-18T01:19:17.102Z,20.00
2019-01-18T01:20:16.834Z,16.00
2019-01-18T01:22:10.218Z,16.00
2019-01-18T01:23:10.025Z,20.00
2019-01-18T01:25:03.512Z,20.00
2019-01-18T01:26:03.326Z,16.00
2019-01-18T01:27:56.644Z,16.00
2019-01-18T01:28:56.666Z,20.00
2019-01-18T01:30:50.264Z,20.00
2019-01-18T01:31:50.228Z,24.00
2019-01-18T01:33:43.338Z,24.00
2019-01-18T01:34:43.658Z,28.00
2019-01-18T01:36:37.122Z,28.00
2019-01-18T01:37:36.907Z,28.00
2019-01-18T01:39:30.061Z,32.00
2019-01-18T01:40:30.003Z,32.00
2019-01-18T01:42:23.908Z,32.00
2019-01-18T01:43:23.660Z,32.00
2019-01-18T01:45:16.951Z,32.00
2019-01-18T01:46:16.718Z,32.00
2019-01-18T01:48:10.287Z,32.00
2019-01-18T01:49:10.352Z,36.00
2019-01-18T01:51:03.444Z,32.00
2019-01-18T01:52:03.661Z,28.00
2019-01-18T01:53:57.238Z,28.00
2019-01-18T01:54:56.778Z,32.00
2019-01-18T01:56:50.136Z,32.00
2019-01-18T01:57:50.342Z,32.00
2019-01-18T01:59:49.785Z,32.00
2019-01-18T02:00:43.431Z,32.00
2019-01-18T02:02:37.025Z,36.00
2019-01-18T02:03:36.810Z,36.00
2019-01-18T02:05:30.465Z,36.00
2019-01-18T02:06:30.368Z,36.00
2019-01-18T02:08:23.703Z,40.00
2019-01-18T02:09:23.699Z,40.00
2019-01-18T02:11:17.060Z,36.00
2019-01-18T02:12:16.818Z,40.00
2019-01-18T02:14:10.187Z,40.00
2019-01-18T02:15:10.150Z,40.00
2019-01-18T02:17:03.723Z,44.00
2019-01-18T02:18:03.532Z,48.00
2019-01-18T02:19:57.144Z,40.00
2019-01-18T02:20:57.107Z,40.00
2019-01-18T02:22:50.650Z,40.00
2019-01-18T02:23:50.415Z,44.00
2019-01-18T02:25:44.122Z,40.00
2019-01-18T02:26:43.518Z,40.00
2019-01-18T02:28:37.114Z,40.00
2019-01-18T02:29:37.147Z,44.00
2019-01-18T02:31:30.268Z,44.00
2019-01-18T02:32:30.211Z,44.00
2019-01-18T02:34:24.529Z,52.00
2019-01-18T02:35:24.560Z,52.00
2019-01-18T02:37:17.676Z,60.00
2019-01-18T02:38:17.636Z,56.00
2019-01-18T02:40:11.426Z,56.00
2019-01-18T02:41:11.258Z,56.00
2019-01-18T02:43:04.626Z,56.00
2019-01-18T02:44:04.411Z,56.00
2019-01-18T02:45:58.260Z,52.00
2019-01-18T02:46:57.961Z,48.00
2019-01-18T02:48:51.753Z,56.00
2019-01-18T02:49:51.770Z,56.00
2019-01-18T02:51:45.407Z,64.00
2019-01-18T02:52:45.108Z,64.00
2019-01-18T02:54:38.749Z,64.00
2019-01-18T02:55:38.231Z,64.00
2019-01-18T02:57:32.061Z,64.00
2019-01-18T02:58:31.767Z,68.00
2019-01-18T03:00:24.896Z,68.00
2019-01-18T03:01:25.124Z,64.00
2019-01-18T03:03:18.469Z,72.00
2019-01-18T03:04:18.298Z,64.00
2019-01-18T03:06:11.618Z,64.00
2019-01-18T03:07:11.613Z,64.00
2019-01-18T03:09:05.461Z,68.00
2019-01-18T03:10:05.171Z,64.00
2019-01-18T03:11:58.277Z,68.00
2019-01-18T03:12:58.562Z,64.00
2019-01-18T03:14:51.877Z,64.00
2019-01-18T03:15:54.065Z,64.00
2019-01-18T03:17:45.269Z,64.00
2019-01-18T03:18:45.208Z,64.00
2019-01-18T03:20:38.574Z,64.00
2019-01-18T03:21:38.581Z,68.00
2019-01-18T03:23:32.264Z,68.00
2019-01-18T03:24:31.890Z,68.00
2019-01-18T03:26:25.551Z,72.00
2019-01-18T03:27:25.072Z,68.00
2019-01-18T03:29:18.691Z,72.00
2019-01-18T03:30:20.455Z,72.00
2019-01-18T03:32:12.264Z,68.00
2019-01-18T03:33:11.749Z,68.00
2019-01-18T03:35:05.130Z,68.00
2019-01-18T03:36:05.080Z,68.00
2019-01-18T03:37:58.905Z,64.00
2019-01-18T03:38:58.429Z,60.00
2019-01-18T03:40:51.780Z,60.00
2019-01-18T03:41:52.033Z,56.00
2019-01-18T03:43:45.365Z,56.00
2019-01-18T03:44:45.170Z,56.00
2019-01-18T03:46:38.457Z,56.00
2019-01-18T03:47:38.683Z,56.00
2019-01-18T03:49:32.006Z,52.00
2019-01-18T03:50:32.025Z,48.00
2019-01-18T03:52:25.149Z,48.00
2019-01-18T03:53:25.134Z,48.00
2019-01-18T03:55:18.992Z,48.00
2019-01-18T03:56:18.747Z,48.00
2019-01-18T03:58:11.845Z,48.00
2019-01-18T03:59:11.875Z,48.00
2019-01-18T04:01:05.164Z,48.00
2019-01-18T04:02:04.681Z,48.00
2019-01-18T04:03:58.049Z,48.00
2019-01-18T04:04:58.036Z,48.00
2019-01-18T04:06:51.616Z,52.00
2019-01-18T04:07:51.383Z,48.00
2019-01-18T04:09:44.995Z,48.00
2019-01-18T04:10:44.735Z,48.00
2019-01-18T04:12:38.525Z,48.00
2019-01-18T04:13:38.320Z,48.00
2019-01-18T04:15:31.677Z,44.00
2019-01-18T04:16:31.449Z,44.00
2019-01-18T04:18:25.204Z,44.00
2019-01-18T04:19:24.750Z,44.00
2019-01-18T04:21:18.242Z,44.00
2019-01-18T04:22:18.103Z,40.00
2019-01-18T04:24:11.670Z,44.00
2019-01-18T04:25:11.487Z,40.00
2019-01-18T04:27:05.108Z,40.00
2019-01-18T04:28:04.771Z,40.00
2019-01-18T04:29:58.376Z,40.00
2019-01-18T04:30:58.377Z,40.00
2019-01-18T04:32:51.495Z,40.00
2019-01-18T04:33:51.736Z,44.00
2019-01-18T04:35:45.619Z,36.00
2019-01-18T04:36:45.380Z,36.00
2019-01-18T04:38:38.771Z,40.00
2019-01-18T04:39:38.771Z,40.00
2019-01-18T04:41:32.427Z,40.00
2019-01-18T04:42:32.115Z,40.00
2019-01-18T04:44:25.487Z,40.00
2019-01-18T04:45:25.438Z,36.00
2019-01-18T04:47:19.217Z,36.00
2019-01-18T04:48:19.038Z,36.00
2019-01-18T04:50:12.369Z,36.00
2019-01-18T04:51:12.392Z,32.00
2019-01-18T04:53:05.687Z,32.00
2019-01-18T04:54:05.692Z,36.00
2019-01-18T04:55:58.845Z,36.00
2019-01-18T04:56:59.109Z,32.00
2019-01-18T04:58:53.167Z,32.00
2019-01-18T04:59:52.167Z,32.00
2019-01-18T05:01:45.811Z,32.00
2019-01-18T05:02:45.546Z,32.00
2019-01-18T05:04:39.354Z,32.00
2019-01-18T05:05:38.847Z,32.00
2019-01-18T05:09:04.288Z,32.00
2019-01-18T05:10:04.270Z,32.00
2019-01-18T05:11:57.840Z,32.00
2019-01-18T05:12:57.660Z,28.00
2019-01-18T05:14:50.984Z,32.00
2019-01-18T05:15:50.974Z,28.00
2019-01-18T05:17:44.522Z,28.00
2019-01-18T05:18:44.337Z,28.00
2019-01-18T05:20:37.925Z,28.00
2019-01-18T05:21:37.660Z,28.00
2019-01-18T05:23:31.449Z,28.00
2019-01-18T05:24:31.229Z,28.00
2019-01-18T05:26:24.396Z,28.00
2019-01-18T05:27:24.602Z,28.00
2019-01-18T05:29:18.166Z,28.00
2019-01-18T05:30:17.727Z,28.00
2019-01-18T05:32:11.041Z,28.00
2019-01-18T05:33:11.072Z,28.00
2019-01-18T05:35:04.900Z,32.00
2019-01-18T05:36:04.362Z,28.00
2019-01-18T05:37:57.762Z,24.00
2019-01-18T05:38:57.981Z,28.00
2019-01-18T05:42:22.904Z,28.00
2019-01-18T05:43:22.681Z,28.00
2019-01-18T05:45:16.008Z,28.00
2019-01-18T05:46:16.035Z,28.00
2019-01-18T05:48:09.606Z,28.00
2019-01-18T05:49:09.579Z,28.00
2019-01-18T05:51:02.810Z,28.00
2019-01-18T05:52:02.962Z,28.00
2019-01-18T05:53:56.241Z,28.00
2019-01-18T05:54:56.009Z,28.00
2019-01-18T05:56:49.411Z,28.00
2019-01-18T05:57:49.600Z,24.00
2019-01-18T05:59:42.993Z,28.00
2019-01-18T06:00:42.968Z,24.00
2019-01-18T06:02:36.359Z,28.00
2019-01-18T06:03:36.313Z,28.00
2019-01-18T06:05:29.626Z,28.00
2019-01-18T06:06:29.429Z,24.00
2019-01-18T06:08:22.746Z,24.00
2019-01-18T06:09:22.746Z,28.00
2019-01-18T06:11:16.587Z,24.00
2019-01-18T06:12:16.082Z,28.00
2019-01-18T06:14:09.450Z,28.00
2019-01-18T06:15:09.437Z,24.00
2019-01-18T06:17:03.303Z,24.00
2019-01-18T06:18:02.833Z,24.00
2019-01-18T06:19:56.418Z,24.00
2019-01-18T06:20:56.168Z,24.00
2019-01-18T06:22:49.972Z,24.00
2019-01-18T06:23:49.729Z,24.00
2019-01-18T06:25:42.877Z,24.00
2019-01-18T06:26:42.834Z,24.00
2019-01-18T06:28:36.649Z,28.00
2019-01-18T06:29:36.220Z,24.00
2019-01-18T06:31:29.849Z,28.00
2019-01-18T06:32:29.526Z,24.00
2019-01-18T06:34:23.406Z,24.00
2019-01-18T06:35:22.911Z,24.00
2019-01-18T06:37:17.352Z,24.00
2019-01-18T06:38:17.017Z,24.00
2019-01-18T06:40:10.573Z,24.00
2019-01-18T06:41:10.363Z,24.00
2019-01-18T06:43:03.708Z,24.00
2019-01-18T06:44:03.440Z,24.00
2019-01-18T06:45:57.017Z,24.00
2019-01-18T06:46:57.039Z,24.00
2019-01-18T06:48:50.209Z,24.00
2019-01-18T06:49:50.179Z,24.00
2019-01-18T06:51:43.714Z,24.00
2019-01-18T06:52:43.709Z,20.00
2019-01-18T06:54:36.869Z,24.00
2019-01-18T06:55:36.862Z,24.00
2019-01-18T06:57:30.409Z,24.00
2019-01-18T06:58:30.321Z,20.00
2019-01-18T07:00:23.758Z,20.00
2019-01-18T07:01:23.569Z,20.00
2019-01-18T07:03:17.343Z,20.00
2019-01-18T07:04:17.109Z,20.00
2019-01-18T07:06:10.474Z,20.00
2019-01-18T07:07:10.434Z,24.00
2019-01-18T07:09:04.082Z,20.00
2019-01-18T07:10:03.305Z,20.00
2019-01-18T07:11:56.441Z,20.00
2019-01-18T07:12:56.664Z,20.00
2019-01-18T07:14:50.054Z,20.00
2019-01-18T07:15:50.040Z,20.00
2019-01-18T07:17:43.126Z,16.00
2019-01-18T07:18:43.414Z,20.00
2019-01-18T07:20:36.918Z,20.00
2019-01-18T07:21:36.694Z,20.00
2019-01-18T07:23:30.098Z,20.00
2019-01-18T07:24:29.826Z,20.00
2019-01-18T07:26:23.438Z,20.00
2019-01-18T07:27:23.475Z,20.00
2019-01-18T07:29:16.847Z,20.00
2019-01-18T07:30:16.530Z,20.00
2019-01-18T07:33:42.151Z,16.00
2019-01-18T07:34:42.215Z,16.00
2019-01-18T07:36:35.525Z,16.00
2019-01-18T07:37:35.490Z,16.00
2019-01-18T07:39:28.840Z,16.00
2019-01-18T07:40:28.857Z,20.00
2019-01-18T07:42:22.003Z,16.00
2019-01-18T07:43:22.207Z,16.00
2019-01-18T07:45:15.604Z,16.00
2019-01-18T07:46:15.561Z,16.00
2019-01-18T07:48:08.683Z,16.00
2019-01-18T07:49:08.677Z,16.00
2019-01-18T07:51:02.240Z,16.00
2019-01-18T07:52:02.254Z,16.00
2019-01-18T07:53:55.626Z,16.00
2019-01-18T07:54:55.357Z,16.00
2019-01-18T07:56:49.157Z,16.00
2019-01-18T07:57:48.969Z,16.00
2019-01-18T07:59:42.026Z,16.00
2019-01-18T08:00:42.033Z,16.00
2019-01-18T08:02:35.817Z,16.00
2019-01-18T08:03:35.592Z,16.00
2019-01-18T08:05:28.851Z,12.00
2019-01-18T08:06:29.004Z,12.00
2019-01-18T08:09:54.345Z,12.00
2019-01-18T08:10:54.339Z,12.00
2019-01-18T08:12:47.596Z,12.00
2019-01-18T08:13:47.715Z,12.00
2019-01-18T08:15:41.242Z,16.00
2019-01-18T08:16:41.064Z,12.00
2019-01-18T08:18:34.213Z,12.00
2019-01-18T08:19:34.220Z,12.00
2019-01-18T08:21:27.781Z,12.00
2019-01-18T08:22:27.750Z,12.00
2019-01-18T08:24:20.654Z,12.00
2019-01-18T08:25:20.656Z,12.00
2019-01-18T08:27:14.212Z,12.00
2019-01-18T08:28:13.766Z,12.00
2019-01-18T08:30:07.079Z,8.00
2019-01-18T08:31:07.125Z,12.00
2019-01-18T08:33:00.885Z,12.00
2019-01-18T08:34:00.488Z,12.00
2019-01-18T08:35:53.855Z,8.00
2019-01-18T08:36:54.087Z,8.00
2019-01-18T08:38:47.584Z,12.00
2019-01-18T08:39:47.186Z,8.00
2019-01-18T08:41:40.741Z,8.00
2019-01-18T08:42:40.717Z,8.00
2019-01-18T08:44:34.122Z,8.00
2019-01-18T08:45:34.139Z,8.00
2019-01-18T08:47:27.261Z,8.00
2019-01-18T08:48:27.505Z,8.00
2019-01-18T08:50:21.479Z,8.00
2019-01-18T08:51:20.621Z,8.00
2019-01-18T08:53:14.042Z,8.00
2019-01-18T08:54:13.932Z,8.00
2019-01-18T08:56:07.770Z,4.00
2019-01-18T08:57:07.538Z,4.00
2019-01-18T08:59:00.891Z,4.00
2019-01-18T09:00:00.860Z,4.00
2019-01-18T09:01:54.240Z,4.00
2019-01-18T09:02:53.975Z,4.00
2019-01-18T09:04:47.350Z,4.00
2019-01-18T09:05:47.304Z,4.00
2019-01-18T09:07:41.059Z,4.00
2019-01-18T09:08:40.657Z,4.00
2019-01-18T09:10:34.252Z,4.00
2019-01-18T09:11:33.981Z,4.00
2019-01-18T09:13:27.795Z,0.00
2019-01-18T09:14:27.345Z,0.00
2019-01-18T09:16:20.948Z,0.00
2019-01-18T09:17:20.717Z,0.00
2019-01-18T09:19:14.198Z,4.00
2019-01-18T09:20:14.291Z,4.00
2019-01-18T09:22:07.421Z,4.00
2019-01-18T09:23:07.405Z,4.00
2019-01-18T09:25:00.936Z,0.00
2019-01-18T09:26:00.739Z,0.00
2019-01-18T09:27:54.057Z,0.00
2019-01-18T09:28:54.319Z,0.00
2019-01-18T09:30:47.577Z,0.00
2019-01-18T09:31:47.394Z,0.00
2019-01-18T09:33:40.787Z,0.00
2019-01-18T09:34:40.982Z,0.00
2019-01-18T09:36:34.347Z,0.00
2019-01-18T09:37:34.093Z,0.00
2019-01-18T09:39:27.474Z,0.00
2019-01-18T09:40:27.704Z,0.00
2019-01-18T09:42:21.277Z,0.00
2019-01-18T09:43:21.011Z,0.00
2019-01-18T09:45:14.396Z,0.00
2019-01-18T09:46:14.168Z,0.00
2019-01-18T09:48:07.933Z,0.00
2019-01-18T09:49:07.481Z,0.00
2019-01-18T09:51:00.891Z,0.00
2019-01-18T09:52:01.076Z,0.00
2019-01-18T09:53:54.238Z,0.00
2019-01-18T09:54:53.694Z,0.00
2019-01-18T09:56:47.079Z,0.00
2019-01-18T09:57:47.037Z,0.00
2019-01-18T09:59:40.836Z,0.00
2019-01-18T10:00:40.367Z,0.00
2019-01-18T10:02:34.103Z,0.00
2019-01-18T10:03:33.943Z,0.00
2019-01-18T10:05:27.512Z,0.00
2019-01-18T10:06:27.063Z,0.00
2019-01-18T10:08:20.666Z,0.00
2019-01-18T10:09:20.394Z,0.00
2019-01-18T10:11:13.958Z,0.00
2019-01-18T10:12:14.002Z,0.00
2019-01-18T10:14:07.122Z,0.00
2019-01-18T10:15:07.344Z,0.00
2019-01-18T10:17:00.866Z,0.00
2019-01-18T10:18:00.984Z,0.00
2019-01-18T10:19:53.802Z,0.00
2019-01-18T10:20:53.789Z,0.00
2019-01-18T10:22:51.022Z,0.00
2019-01-18T10:23:47.379Z,0.00
2019-01-18T10:25:40.747Z,0.00
2019-01-18T10:26:40.478Z,0.00
2019-01-18T10:28:34.049Z,0.00
2019-01-18T10:29:34.070Z,0.00
2019-01-18T10:31:27.451Z,0.00
2019-01-18T10:32:27.180Z,0.00
2019-01-18T10:34:20.750Z,0.00
2019-01-18T10:35:20.565Z,0.00
2019-01-18T10:37:13.917Z,0.00
2019-01-18T10:38:13.866Z,0.00
2019-01-18T10:40:08.001Z,0.00
2019-01-18T10:41:07.794Z,0.00
2019-01-18T10:43:01.187Z,0.00
2019-01-18T10:44:05.925Z,0.00
2019-01-18T10:45:55.063Z,0.00
2019-01-18T10:46:54.809Z,0.00
2019-01-18T10:48:47.942Z,0.00
2019-01-18T10:49:47.896Z,0.00
2019-01-18T10:51:41.512Z,0.00
2019-01-18T10:52:41.509Z,0.00
2019-01-18T10:54:37.324Z,0.00
2019-01-18T10:55:37.031Z,0.00
2019-01-18T10:57:30.596Z,0.00
2019-01-18T10:58:30.579Z,0.00
2019-01-18T11:00:23.681Z,0.00
2019-01-18T11:01:23.892Z,0.00
2019-01-18T11:03:17.275Z,0.00
2019-01-18T11:04:17.000Z,0.00
2019-01-18T11:06:10.374Z,0.00
2019-01-18T11:07:10.362Z,0.00
2019-01-18T11:09:04.113Z,0.00
2019-01-18T11:10:03.705Z,0.00
2019-01-18T11:11:57.305Z,0.00
2019-01-18T11:12:57.277Z,0.00
2019-01-18T11:14:50.897Z,0.00
2019-01-18T11:15:50.375Z,0.00
2019-01-18T11:17:43.509Z,0.00
2019-01-18T11:18:43.279Z,0.00
2019-01-18T11:20:36.806Z,0.00
2019-01-18T11:21:36.834Z,0.00
2019-01-18T11:23:30.174Z,0.00
2019-01-18T11:24:29.926Z,0.00
2019-01-18T11:26:23.504Z,0.00
2019-01-18T11:27:23.495Z,0.00
2019-01-18T11:29:16.856Z,0.00
2019-01-18T11:30:16.853Z,0.00
2019-01-18T11:32:13.677Z,0.00
2019-01-18T11:33:10.261Z,0.00
2019-01-18T11:35:03.332Z,0.00
2019-01-18T11:36:03.306Z,0.00
2019-01-18T11:37:57.108Z,0.00
2019-01-18T11:38:56.949Z,0.00
2019-01-18T11:40:50.056Z,0.00
2019-01-18T11:41:50.040Z,0.00
2019-01-18T11:43:43.613Z,0.00
2019-01-18T11:44:43.342Z,0.00
2019-01-18T11:46:36.937Z,0.00
2019-01-18T11:47:36.942Z,0.00
2019-01-18T11:49:30.551Z,0.00
2019-01-18T11:50:30.283Z,0.00
2019-01-18T11:52:23.403Z,0.00
2019-01-18T11:53:23.654Z,0.00
2019-01-18T11:55:17.192Z,0.00
2019-01-18T11:56:16.993Z,0.00
2019-01-18T11:58:10.099Z,0.00
2019-01-18T11:59:10.277Z,0.00
2019-01-18T12:01:03.610Z,0.00
2019-01-18T12:02:03.618Z,0.00
2019-01-18T12:03:57.004Z,0.00
2019-01-18T12:04:56.751Z,0.00
2019-01-18T12:06:50.595Z,0.00
2019-01-18T12:07:50.390Z,0.00
2019-01-18T12:09:43.661Z,0.00
2019-01-18T12:10:43.432Z,0.00
2019-01-18T12:12:40.814Z,0.00
2019-01-18T12:13:36.775Z,0.00
2019-01-18T12:15:29.687Z,0.00
2019-01-18T12:16:29.663Z,0.00
2019-01-18T12:18:23.212Z,0.00
2019-01-18T12:19:23.023Z,0.00
2019-01-18T12:21:16.573Z,0.00
2019-01-18T12:22:16.374Z,0.00
2019-01-18T12:24:09.902Z,0.00
2019-01-18T12:25:09.931Z,0.00
2019-01-18T12:27:03.317Z,0.00
2019-01-18T12:28:03.300Z,0.00
2019-01-18T12:29:56.596Z,0.00
2019-01-18T12:30:56.354Z,0.00
2019-01-18T12:32:49.747Z,0.00
2019-01-18T12:33:49.967Z,0.00
2019-01-18T12:35:43.538Z,0.00
2019-01-18T12:36:43.318Z,0.00
2019-01-18T12:38:36.675Z,0.00
2019-01-18T12:39:36.393Z,0.00
2019-01-18T12:41:30.257Z,0.00
2019-01-18T12:42:29.987Z,0.00
2019-01-18T12:44:23.386Z,0.00
2019-01-18T12:45:23.077Z,0.00
2019-01-18T12:47:16.692Z,0.00
2019-01-18T12:48:16.687Z,0.00
2019-01-18T12:50:10.038Z,0.00
2019-01-18T12:51:10.023Z,0.00
2019-01-18T12:53:03.394Z,0.00
2019-01-18T12:54:03.383Z,0.00
2019-01-18T12:55:56.524Z,0.00
2019-01-18T12:56:56.463Z,0.00
2019-01-18T12:58:50.231Z,0.00
2019-01-18T12:59:50.055Z,0.00
2019-01-18T13:01:43.455Z,0.00
2019-01-18T13:02:43.414Z,0.00
2019-01-18T13:04:40.805Z,0.00
2019-01-18T13:05:36.508Z,0.00
2019-01-18T13:07:30.132Z,0.00
2019-01-18T13:08:30.098Z,0.00
2019-01-18T13:10:23.685Z,0.00
2019-01-18T13:11:23.441Z,0.00
2019-01-18T13:13:16.576Z,0.00
2019-01-18T13:14:16.810Z,0.00
2019-01-18T13:16:10.338Z,0.00
2019-01-18T13:17:09.902Z,0.00
2019-01-18T13:19:04.499Z,0.00
2019-01-18T13:20:04.510Z,0.00
2019-01-18T13:21:57.836Z,0.00
2019-01-18T13:22:57.610Z,0.00
2019-01-18T13:24:50.941Z,0.00
2019-01-18T13:25:51.192Z,0.00
2019-01-18T13:27:44.031Z,0.00
2019-01-18T13:28:43.787Z,0.00
2019-01-18T13:30:37.421Z,0.00
2019-01-18T13:31:37.144Z,0.00
2019-01-18T13:33:34.034Z,0.00
2019-01-18T13:34:30.749Z,0.00
2019-01-18T13:36:23.871Z,0.00
2019-01-18T13:37:23.827Z,0.00
2019-01-18T13:39:17.398Z,0.00
2019-01-18T13:40:17.405Z,0.00
2019-01-18T13:42:10.524Z,0.00
2019-01-18T13:43:10.789Z,0.00
2019-01-18T13:45:04.103Z,0.00
2019-01-18T13:46:04.125Z,0.00
2019-01-18T13:47:57.436Z,0.00
2019-01-18T13:48:57.495Z,0.00
2019-01-18T13:50:50.805Z,0.00
2019-01-18T13:51:50.800Z,0.00
2019-01-18T13:53:44.152Z,0.00
2019-01-18T13:54:43.915Z,0.00
2019-01-18T13:56:37.492Z,0.00
2019-01-18T13:57:37.497Z,0.00
2019-01-18T13:59:30.827Z,0.00
2019-01-18T14:00:30.602Z,0.00
2019-01-18T14:02:24.155Z,0.00
2019-01-18T14:03:23.954Z,0.00
2019-01-18T14:05:17.569Z,0.00
2019-01-18T14:06:17.497Z,0.00
2019-01-18T14:08:10.879Z,0.00
2019-01-18T14:09:10.896Z,0.00
2019-01-18T14:11:04.001Z,0.00
2019-01-18T14:12:04.247Z,0.00
2019-01-18T14:13:57.545Z,0.00
2019-01-18T14:14:57.592Z,0.00
2019-01-18T14:16:50.701Z,0.00
2019-01-18T14:17:50.916Z,0.00
2019-01-18T14:19:45.090Z,0.00
2019-01-18T14:20:44.210Z,0.00
2019-01-18T14:22:37.331Z,0.00
2019-01-18T14:23:37.331Z,0.00
2019-01-18T14:25:30.909Z,0.00
2019-01-18T14:26:30.923Z,0.00
2019-01-18T14:28:24.075Z,0.00
2019-01-18T14:29:24.025Z,0.00
2019-01-18T14:31:18.201Z,0.00
2019-01-18T14:32:17.658Z,0.00
2019-01-18T14:34:10.770Z,0.00
2019-01-18T14:35:10.933Z,0.00
2019-01-18T14:37:04.524Z,0.00
2019-01-18T14:38:04.054Z,0.00
2019-01-18T14:39:57.658Z,0.00
2019-01-18T14:40:57.425Z,0.00
2019-01-18T14:42:51.768Z,0.00
2019-01-18T14:43:51.494Z,0.00
2019-01-18T14:45:44.879Z,0.00
2019-01-18T14:46:44.899Z,0.00
2019-01-18T14:48:38.208Z,0.00
2019-01-18T14:49:38.205Z,0.00
2019-01-18T14:51:31.564Z,0.00
2019-01-18T14:52:31.581Z,0.00
2019-01-18T14:54:24.863Z,0.00
2019-01-18T14:55:24.904Z,0.00
2019-01-18T14:57:17.984Z,0.00
2019-01-18T14:58:18.246Z,0.00
2019-01-18T15:00:11.593Z,0.00
2019-01-18T15:01:11.363Z,0.00
2019-01-18T15:03:04.944Z,0.00
2019-01-18T15:04:04.921Z,0.00
2019-01-18T15:05:58.258Z,0.00
2019-01-18T15:06:58.238Z,0.00
2019-01-18T15:08:51.617Z,0.00
2019-01-18T15:09:51.610Z,0.00
2019-01-18T15:11:44.945Z,0.00
2019-01-18T15:12:44.688Z,0.00
2019-01-18T15:14:38.340Z,0.00
2019-01-18T15:15:38.316Z,0.00
2019-01-18T15:17:34.583Z,0.00
2019-01-18T15:18:31.161Z,0.00
2019-01-18T15:20:24.515Z,0.00
2019-01-18T15:21:24.536Z,0.00
2019-01-18T15:23:17.938Z,0.00
2019-01-18T15:24:17.835Z,0.00
2019-01-18T15:26:10.973Z,0.00
2019-01-18T15:27:10.947Z,0.00
2019-01-18T15:29:04.483Z,0.00
2019-01-18T15:30:06.907Z,0.00
2019-01-18T15:31:57.641Z,0.00
2019-01-18T15:32:57.874Z,0.00
2019-01-18T15:34:51.211Z,0.00
2019-01-18T15:35:51.186Z,0.00
2019-01-18T15:37:44.309Z,0.00
2019-01-18T15:38:44.282Z,0.00
2019-01-18T15:40:38.040Z,0.00
2019-01-18T15:41:37.853Z,0.00
2019-01-18T15:43:31.029Z,0.00
2019-01-18T15:44:30.996Z,0.00
2019-01-18T15:46:24.327Z,0.00
2019-01-18T15:47:24.081Z,0.00
2019-01-18T15:49:17.228Z,0.00
2019-01-18T15:50:17.178Z,0.00
2019-01-18T15:52:10.937Z,0.00
2019-01-18T15:53:10.747Z,0.00
2019-01-18T15:55:04.107Z,0.00
2019-01-18T15:56:04.136Z,0.00
2019-01-18T15:57:57.635Z,0.00
2019-01-18T15:58:57.451Z,0.00
2019-01-18T16:00:50.788Z,0.00
2019-01-18T16:01:50.587Z,0.00
2019-01-18T16:03:44.377Z,0.00
2019-01-18T16:04:43.896Z,0.00
2019-01-18T16:06:37.591Z,0.00
2019-01-18T16:07:37.272Z,0.00
2019-01-18T16:09:30.778Z,0.00
2019-01-18T16:10:30.925Z,0.00
2019-01-18T16:12:24.248Z,0.00
2019-01-18T16:13:23.933Z,0.00
2019-01-18T16:15:17.762Z,0.00
2019-01-18T16:16:17.306Z,0.00
2019-01-18T16:18:10.659Z,0.00
2019-01-18T16:19:10.836Z,0.00
2019-01-18T16:21:04.211Z,0.00
2019-01-18T16:22:04.199Z,0.00
2019-01-18T16:23:57.588Z,0.00
2019-01-18T16:24:57.553Z,0.00
2019-01-18T16:26:50.863Z,0.00
2019-01-18T16:27:50.678Z,0.00
2019-01-18T16:29:43.997Z,0.00
2019-01-18T16:30:44.216Z,0.00
2019-01-18T16:32:37.847Z,0.00
2019-01-18T16:33:37.342Z,0.00
2019-01-18T16:35:30.673Z,0.00
2019-01-18T16:36:30.714Z,0.00
2019-01-18T16:38:24.258Z,0.00
2019-01-18T16:39:24.004Z,0.00
2019-01-18T16:41:17.364Z,0.00
2019-01-18T16:42:17.565Z,0.00
2019-01-18T16:44:11.448Z,0.00
2019-01-18T16:45:11.478Z,0.00
2019-01-18T16:47:04.807Z,0.00
2019-01-18T16:48:04.562Z,0.00
2019-01-18T16:49:58.719Z,0.00
2019-01-18T16:50:57.942Z,0.00
2019-01-18T16:52:51.539Z,0.00
2019-01-18T16:53:51.280Z,0.00
2019-01-18T16:55:44.822Z,0.00
2019-01-18T16:56:44.844Z,0.00
2019-01-18T16:58:37.942Z,0.00
2019-01-18T16:59:38.163Z,0.00
2019-01-18T17:01:31.749Z,0.00
2019-01-18T17:02:31.273Z,0.00
2019-01-18T17:04:24.881Z,0.00
2019-01-18T17:05:24.624Z,0.00
2019-01-18T17:07:18.462Z,0.00
2019-01-18T17:08:17.994Z,0.00
2019-01-18T17:10:11.363Z,0.00
2019-01-18T17:11:11.528Z,0.00
2019-01-18T17:13:05.136Z,0.00
2019-01-18T17:14:04.920Z,0.00
2019-01-18T17:15:58.293Z,0.00
2019-01-18T17:16:58.246Z,0.00
2019-01-18T17:18:51.576Z,0.00
2019-01-18T17:19:51.331Z,0.00
2019-01-18T17:21:44.918Z,0.00
2019-01-18T17:22:44.672Z,0.00
2019-01-18T17:24:38.481Z,0.00
2019-01-18T17:25:38.007Z,0.00
2019-01-18T17:27:31.614Z,0.00
2019-01-18T17:28:31.646Z,0.00
2019-01-18T17:30:24.924Z,0.00
2019-01-18T17:31:24.755Z,0.00
2019-01-18T17:33:18.322Z,0.00
2019-01-18T17:34:18.333Z,0.00
2019-01-18T17:36:16.626Z,0.00
2019-01-18T17:37:11.606Z,0.00
2019-01-18T17:39:05.009Z,0.00
2019-01-18T17:40:04.757Z,0.00
2019-01-18T17:41:58.520Z,0.00
2019-01-18T17:42:58.294Z,0.00
2019-01-18T17:44:51.677Z,0.00
2019-01-18T17:45:51.691Z,0.00
2019-01-18T17:47:45.279Z,0.00
2019-01-18T17:48:44.756Z,0.00
2019-01-18T17:50:38.107Z,0.00
2019-01-18T17:51:38.091Z,0.00
2019-01-18T17:53:32.020Z,0.00
2019-01-18T17:54:31.470Z,0.00
2019-01-18T17:56:24.786Z,0.00
2019-01-18T17:57:25.041Z,0.00
2019-01-18T17:59:18.374Z,0.00
2019-01-18T18:00:18.148Z,0.00
2019-01-18T18:02:11.475Z,0.00
2019-01-18T18:03:11.463Z,0.00
2019-01-18T18:05:05.332Z,0.00
2019-01-18T18:06:05.070Z,0.00
2019-01-18T18:07:58.189Z,0.00
2019-01-18T18:08:58.408Z,0.00
2019-01-18T18:10:51.909Z,0.00
2019-01-18T18:11:51.777Z,0.00
2019-01-18T18:13:45.108Z,0.00
2019-01-18T18:14:44.866Z,0.00
2019-01-18T18:16:39.295Z,0.00
2019-01-18T18:17:38.167Z,0.00
2019-01-18T18:19:31.523Z,0.00
2019-01-18T18:20:31.758Z,0.00
2019-01-18T18:22:25.365Z,0.00
2019-01-18T18:23:24.890Z,0.00
2019-01-18T18:25:18.478Z,0.00
2019-01-18T18:26:18.553Z,0.00
2019-01-18T18:28:11.818Z,0.00
2019-01-18T18:29:11.830Z,0.00
2019-01-18T18:31:05.160Z,0.00
2019-01-18T18:32:04.935Z,0.00
2019-01-18T18:33:58.701Z,0.00
2019-01-18T18:34:58.463Z,0.00
2019-01-18T18:36:51.651Z,0.00
2019-01-18T18:37:51.807Z,0.00
2019-01-18T18:39:45.134Z,0.00
2019-01-18T18:40:44.959Z,0.00
2019-01-18T18:42:38.505Z,0.00
2019-01-18T18:43:38.503Z,0.00
2019-01-18T18:45:32.405Z,0.00
2019-01-18T18:46:32.427Z,0.00
2019-01-18T18:48:25.713Z,0.00
2019-01-18T18:49:25.518Z,0.00
2019-01-18T18:51:19.102Z,0.00
2019-01-18T18:52:18.855Z,0.00
2019-01-18T18:54:12.451Z,0.00
2019-01-18T18:55:12.209Z,0.00
2019-01-18T18:57:06.002Z,0.00
2019-01-18T18:58:05.554Z,0.00
2019-01-18T18:59:58.871Z,0.00
2019-01-18T19:00:58.864Z,0.00
2019-01-18T19:02:52.686Z,0.00
2019-01-18T19:03:57.380Z,0.00
2019-01-18T19:05:45.589Z,0.00